createdAt,value
2022-08-22T00:00:33.894Z,15.41
2022-08-22T00:02:54.356Z,17.14
2022-08-22T00:03:01.015Z,18.62
2022-08-22T00:03:09.681Z,17.36
2022-08-22T00:06:00.715Z,15.38
2022-08-22T00:08:57.450Z,15.37
2022-08-22T00:11:52.844Z,15.36
2022-08-22T00:14:35.008Z,15.32
2022-08-22T00:17:20.227Z,15.30
2022-08-22T00:20:13.390Z,15.28
2022-08-22T00:22:52.396Z,15.27
2022-08-22T00:25:54.975Z,15.28
2022-08-22T00:28:41.867Z,15.22
2022-08-22T00:31:35.347Z,15.22
2022-08-22T00:34:11.840Z,15.20
2022-08-22T00:36:51.444Z,15.19
2022-08-22T00:39:25.453Z,15.13
2022-08-22T00:42:31.718Z,15.11
2022-08-22T00:45:20.176Z,15.04
2022-08-22T00:48:21.898Z,14.99
2022-08-22T00:51:11.478Z,14.94
2022-08-22T00:53:37.951Z,14.88
2022-08-22T00:56:29.346Z,14.85
2022-08-22T00:59:23.806Z,14.81
2022-08-22T01:02:04.947Z,14.75
2022-08-22T01:04:42.657Z,14.67
2022-08-22T01:07:24.575Z,14.61
2022-08-22T01:10:34.031Z,14.62
2022-08-22T01:13:44.976Z,14.60
2022-08-22T01:16:14.137Z,14.55
2022-08-22T01:18:57.677Z,14.52
2022-08-22T01:21:52.128Z,14.49
2022-08-22T01:25:13.145Z,14.50
2022-08-22T01:28:07.436Z,14.45
2022-08-22T01:30:59.106Z,14.42
2022-08-22T01:33:43.456Z,14.41
2022-08-22T01:36:28.694Z,14.43
2022-08-22T01:39:15.398Z,14.42
2022-08-22T01:42:00.018Z,14.38
2022-08-22T01:44:35.449Z,14.39
2022-08-22T01:47:11.047Z,14.34
2022-08-22T01:49:44.620Z,14.32
2022-08-22T01:52:19.673Z,14.28
2022-08-22T01:54:59.603Z,14.23
2022-08-22T01:57:27.509Z,14.22
2022-08-22T02:00:07.653Z,14.19
2022-08-22T02:02:59.722Z,14.16
2022-08-22T02:05:37.382Z,14.12
2022-08-22T02:08:25.220Z,14.08
2022-08-22T02:11:04.592Z,14.00
2022-08-22T02:13:51.359Z,13.99
2022-08-22T02:16:20.679Z,13.92
2022-08-22T02:19:02.207Z,13.91
2022-08-22T02:21:41.684Z,13.84
2022-08-22T02:24:32.975Z,13.83
2022-08-22T02:27:19.796Z,13.80
2022-08-22T02:30:18.604Z,13.83
2022-08-22T02:33:10.263Z,13.74
2022-08-22T02:35:51.857Z,13.77
2022-08-22T02:38:29.248Z,13.74
2022-08-22T02:41:38.148Z,13.75
2022-08-22T02:44:25.729Z,13.73
2022-08-22T02:47:12.873Z,13.71
2022-08-22T02:49:58.563Z,13.67
2022-08-22T02:52:39.443Z,13.64
2022-08-22T02:55:50.572Z,13.61
2022-08-22T02:58:44.791Z,13.62
2022-08-22T03:01:33.534Z,13.60
2022-08-22T03:04:32.286Z,13.62
2022-08-22T03:07:08.013Z,13.62
2022-08-22T03:09:41.495Z,13.61
2022-08-22T03:12:41.948Z,13.58
2022-08-22T03:15:23.413Z,13.58
2022-08-22T03:18:00.139Z,13.55
2022-08-22T03:20:42.008Z,13.53
2022-08-22T03:23:40.720Z,13.49
2022-08-22T03:26:22.695Z,13.48
2022-08-22T03:28:59.711Z,13.47
2022-08-22T03:31:29.181Z,13.45
2022-08-22T03:34:21.459Z,13.46
2022-08-22T03:36:58.304Z,13.38
2022-08-22T03:40:00.226Z,13.35
2022-08-22T03:42:35.812Z,13.29
2022-08-22T03:45:28.587Z,13.24
2022-08-22T03:48:27.520Z,13.20
2022-08-22T03:51:21.907Z,13.22
2022-08-22T03:54:09.697Z,13.25
2022-08-22T03:56:39.108Z,13.24
2022-08-22T03:59:24.092Z,13.22
2022-08-22T04:02:27.522Z,13.29
2022-08-22T04:05:01.426Z,13.26
2022-08-22T04:08:08.064Z,13.22
2022-08-22T04:11:15.714Z,13.13
2022-08-22T04:13:57.351Z,13.13
2022-08-22T04:16:26.641Z,13.13
2022-08-22T04:19:22.686Z,13.09
2022-08-22T04:21:51.953Z,13.11
2022-08-22T04:24:30.570Z,13.13
2022-08-22T04:27:03.123Z,13.09
2022-08-22T04:29:38.924Z,13.05
2022-08-22T04:32:27.277Z,13.04
2022-08-22T04:35:08.172Z,13.02
2022-08-22T04:37:40.508Z,13.02
2022-08-22T04:40:14.330Z,12.97
2022-08-22T04:42:55.941Z,13.01
2022-08-22T04:45:48.992Z,13.05
2022-08-22T04:48:28.246Z,13.02
2022-08-22T04:51:03.612Z,13.02
2022-08-22T04:53:52.172Z,13.01
2022-08-22T04:56:45.081Z,12.96
2022-08-22T04:59:16.507Z,12.99
2022-08-22T05:01:59.260Z,13.02
2022-08-22T05:04:30.617Z,13.02
2022-08-22T05:07:16.024Z,13.02
2022-08-22T05:09:47.637Z,13.03
2022-08-22T05:12:25.241Z,13.04
2022-08-22T05:15:05.658Z,13.08
2022-08-22T05:17:37.841Z,13.09
2022-08-22T05:20:10.138Z,13.11
2022-08-22T05:22:42.786Z,13.16
2022-08-22T05:25:15.044Z,13.23
2022-08-22T05:28:13.652Z,13.32
2022-08-22T05:30:41.107Z,13.38
2022-08-22T05:33:21.631Z,13.50
2022-08-22T05:35:58.243Z,13.62
2022-08-22T05:38:31.040Z,13.76
2022-08-22T05:41:06.048Z,13.94
2022-08-22T05:43:38.498Z,14.08
2022-08-22T05:46:09.929Z,14.22
2022-08-22T05:49:01.129Z,14.39
2022-08-22T05:51:39.745Z,14.53
2022-08-22T05:54:14.465Z,14.64
2022-08-22T05:56:49.265Z,14.75
2022-08-22T05:59:29.887Z,14.85
2022-08-22T06:02:15.278Z,14.97
2022-08-22T06:04:51.819Z,15.10
2022-08-22T06:07:22.218Z,15.21
2022-08-22T06:09:48.724Z,15.29
2022-08-22T06:12:22.786Z,15.40
2022-08-22T06:15:11.595Z,15.49
2022-08-22T06:17:45.430Z,15.52
2022-08-22T06:20:19.623Z,15.55
2022-08-22T06:22:53.478Z,15.53
2022-08-22T06:25:34.029Z,15.56
2022-08-22T06:28:23.809Z,15.70
2022-08-22T06:30:54.143Z,15.85
2022-08-22T06:33:29.351Z,15.93
2022-08-22T06:36:23.643Z,16.03
2022-08-22T06:38:56.435Z,16.10
2022-08-22T06:41:26.692Z,16.16
2022-08-22T06:43:54.316Z,16.22
2022-08-22T06:46:26.144Z,16.33
2022-08-22T06:48:56.294Z,16.50
2022-08-22T06:51:29.345Z,16.62
2022-08-22T06:54:08.783Z,16.84
2022-08-22T06:56:40.678Z,16.96
2022-08-22T06:59:15.647Z,17.11
2022-08-22T07:01:45.083Z,17.21
2022-08-22T07:04:12.009Z,17.41
2022-08-22T07:06:42.647Z,17.61
2022-08-22T07:09:34.765Z,17.75
2022-08-22T07:12:04.631Z,17.90
2022-08-22T07:14:42.192Z,18.03
2022-08-22T07:17:17.862Z,18.07
2022-08-22T07:19:57.315Z,18.14
2022-08-22T07:22:25.615Z,18.29
2022-08-22T07:25:08.220Z,18.37
2022-08-22T07:28:03.709Z,18.52
2022-08-22T07:31:01.675Z,18.59
2022-08-22T07:33:49.809Z,18.65
2022-08-22T07:36:31.619Z,18.76
2022-08-22T07:39:39.662Z,18.81
2022-08-22T07:42:21.612Z,18.91
2022-08-22T07:45:13.897Z,19.03
2022-08-22T07:48:04.724Z,19.08
2022-08-22T07:50:37.080Z,19.15
2022-08-22T07:53:27.934Z,19.15
2022-08-22T07:55:56.528Z,19.22
2022-08-22T07:58:27.041Z,19.26
2022-08-22T08:00:54.872Z,19.49
2022-08-22T08:03:24.754Z,19.66
2022-08-22T08:05:52.749Z,19.93
2022-08-22T08:08:45.911Z,20.25
2022-08-22T08:11:17.020Z,20.59
2022-08-22T08:13:47.422Z,20.93
2022-08-22T08:16:21.821Z,21.28
2022-08-22T08:18:51.636Z,21.56
2022-08-22T08:21:49.461Z,21.85
2022-08-22T08:24:22.292Z,22.07
2022-08-22T08:27:12.804Z,22.56
2022-08-22T08:29:45.160Z,22.96
2022-08-22T08:32:13.432Z,23.00
2022-08-22T08:34:43.369Z,22.97
2022-08-22T08:37:22.256Z,23.00
2022-08-22T08:39:51.963Z,23.15
2022-08-22T08:43:03.179Z,23.08
2022-08-22T08:48:18.332Z,22.90
2022-08-22T08:51:41.530Z,23.25
2022-08-22T08:54:40.872Z,23.88
2022-08-22T08:57:15.093Z,23.93
2022-08-22T08:59:44.416Z,23.53
2022-08-22T09:02:34.845Z,23.17
2022-08-22T09:05:15.488Z,22.95
2022-08-22T09:07:56.122Z,22.94
2022-08-22T09:10:41.234Z,23.01
2022-08-22T09:13:48.166Z,23.04
2022-08-22T09:16:24.672Z,23.12
2022-08-22T09:19:17.347Z,23.41
2022-08-22T09:22:14.545Z,24.21
2022-08-22T09:24:52.429Z,25.05
2022-08-22T09:27:32.513Z,25.63
2022-08-22T09:30:08.009Z,25.98
2022-08-22T09:33:03.444Z,25.66
2022-08-22T09:35:41.934Z,24.95
2022-08-22T09:38:33.200Z,24.31
2022-08-22T09:41:03.849Z,23.79
2022-08-22T09:43:45.012Z,23.86
2022-08-22T09:46:18.554Z,23.83
2022-08-22T09:49:13.257Z,23.82
2022-08-22T09:51:50.540Z,24.10
2022-08-22T09:54:33.677Z,24.85
2022-08-22T09:57:02.084Z,25.43
2022-08-22T09:59:46.946Z,26.41
2022-08-22T10:02:34.614Z,26.92
2022-08-22T10:05:07.705Z,27.50
2022-08-22T10:07:53.071Z,27.33
2022-08-22T10:10:43.315Z,26.60
2022-08-22T10:13:36.105Z,25.58
2022-08-22T10:16:17.062Z,24.84
2022-08-22T10:19:06.699Z,24.48
2022-08-22T10:22:08.445Z,24.31
2022-08-22T10:25:10.633Z,24.41
2022-08-22T10:27:56.878Z,24.66
2022-08-22T10:30:49.655Z,25.03
2022-08-22T10:33:20.284Z,25.39
2022-08-22T10:36:15.315Z,25.61
2022-08-22T10:38:54.780Z,27.17
2022-08-22T10:41:36.209Z,27.32
2022-08-22T10:44:14.853Z,28.40
2022-08-22T10:46:51.110Z,28.97
2022-08-22T10:49:28.268Z,29.52
2022-08-22T10:52:21.979Z,29.58
2022-08-22T10:54:51.571Z,29.57
2022-08-22T10:57:36.830Z,29.27
2022-08-22T11:00:46.332Z,29.57
2022-08-22T11:03:32.116Z,29.72
2022-08-22T11:06:02.860Z,28.91
2022-08-22T11:08:48.942Z,29.06
2022-08-22T11:11:25.271Z,28.99
2022-08-22T11:14:14.540Z,29.10
2022-08-22T11:17:12.052Z,29.17
2022-08-22T11:20:16.678Z,29.37
2022-08-22T11:23:16.835Z,29.49
2022-08-22T11:26:07.856Z,29.98
2022-08-22T11:29:11.282Z,30.30
2022-08-22T11:31:51.595Z,29.97
2022-08-22T11:34:38.898Z,29.53
2022-08-22T11:37:14.940Z,29.53
2022-08-22T11:39:48.996Z,28.96
2022-08-22T11:42:47.351Z,29.23
2022-08-22T11:45:21.514Z,29.26
2022-08-22T11:48:00.636Z,28.32
2022-08-22T11:50:36.702Z,28.43
2022-08-22T11:53:37.003Z,29.19
2022-08-22T11:56:30.145Z,29.12
2022-08-22T11:59:02.587Z,28.63
2022-08-22T12:01:46.208Z,28.79
2022-08-22T12:04:25.109Z,28.52
2022-08-22T12:06:54.545Z,28.33
2022-08-22T12:09:51.000Z,28.68
2022-08-22T12:12:25.859Z,28.98
2022-08-22T12:15:03.882Z,29.11
2022-08-22T12:18:01.426Z,29.36
2022-08-22T12:20:46.038Z,29.13
2022-08-22T12:23:40.783Z,29.64
2022-08-22T12:26:29.182Z,29.90
2022-08-22T12:29:04.728Z,29.83
2022-08-22T12:32:37.773Z,29.79
2022-08-22T12:35:40.300Z,29.90
2022-08-22T12:38:31.301Z,29.82
2022-08-22T12:41:35.080Z,29.95
2022-08-22T12:44:17.139Z,29.94
2022-08-22T12:47:04.457Z,29.82
2022-08-22T12:49:49.953Z,29.54
2022-08-22T12:52:44.371Z,29.69
2022-08-22T12:55:24.839Z,29.60
2022-08-22T12:58:03.548Z,29.52
2022-08-22T13:00:38.166Z,29.83
2022-08-22T13:03:10.942Z,29.68
2022-08-22T13:05:44.129Z,30.04
2022-08-22T13:08:19.951Z,30.21
2022-08-22T13:10:50.903Z,30.02
2022-08-22T13:13:37.140Z,29.54
2022-08-22T13:16:09.407Z,29.51
2022-08-22T13:18:59.016Z,29.45
2022-08-22T13:21:36.141Z,29.15
2022-08-22T13:24:38.558Z,29.29
2022-08-22T13:27:22.209Z,29.19
2022-08-22T13:29:57.645Z,29.10
2022-08-22T13:32:33.342Z,28.92
2022-08-22T13:35:01.264Z,29.08
2022-08-22T13:37:40.941Z,29.42
2022-08-22T13:40:13.215Z,29.62
2022-08-22T13:42:47.798Z,29.32
2022-08-22T13:45:22.061Z,29.38
2022-08-22T13:47:56.841Z,29.47
2022-08-22T13:50:27.706Z,29.48
2022-08-22T13:53:14.625Z,29.28
2022-08-22T13:55:59.223Z,28.96
2022-08-22T13:58:32.385Z,28.94
2022-08-22T14:01:15.572Z,28.87
2022-08-22T14:03:48.601Z,28.77
2022-08-22T14:06:37.710Z,28.76
2022-08-22T14:09:30.720Z,28.70
2022-08-22T14:12:33.494Z,28.42
2022-08-22T14:15:03.679Z,28.45
2022-08-22T14:17:42.510Z,28.37
2022-08-22T14:20:14.512Z,28.27
2022-08-22T14:23:10.526Z,28.18
2022-08-22T14:25:40.865Z,28.00
2022-08-22T14:28:27.387Z,28.19
2022-08-22T14:31:13.663Z,28.14
2022-08-22T14:33:52.825Z,28.24
2022-08-22T14:36:26.481Z,28.28
2022-08-22T14:39:06.608Z,28.25
2022-08-22T14:41:52.970Z,28.13
2022-08-22T14:44:32.657Z,28.14
2022-08-22T14:47:04.863Z,28.13
2022-08-22T14:50:00.849Z,27.96
2022-08-22T14:52:29.363Z,27.92
2022-08-22T14:55:08.404Z,27.87
2022-08-22T14:57:41.643Z,27.60
2022-08-22T15:00:13.947Z,27.68
2022-08-22T15:02:42.144Z,27.69
2022-08-22T15:05:19.797Z,27.52
2022-08-22T15:07:59.322Z,27.41
2022-08-22T15:10:34.163Z,27.28
2022-08-22T15:13:07.889Z,27.39
2022-08-22T15:15:53.616Z,27.44
2022-08-22T15:18:28.487Z,27.50
2022-08-22T15:21:08.729Z,27.53
2022-08-22T15:23:45.276Z,27.44
2022-08-22T15:26:23.126Z,27.43
2022-08-22T15:29:04.429Z,27.52
2022-08-22T15:31:31.491Z,27.45
2022-08-22T15:34:12.045Z,27.31
2022-08-22T15:37:24.629Z,27.28
2022-08-22T15:40:12.032Z,27.29
2022-08-22T15:42:51.485Z,27.14
2022-08-22T15:45:29.647Z,27.07
2022-08-22T15:48:01.295Z,26.99
2022-08-22T15:50:41.803Z,27.02
2022-08-22T15:53:22.163Z,26.98
2022-08-22T15:56:22.458Z,26.80
2022-08-22T15:59:11.247Z,26.77
2022-08-22T16:01:44.272Z,26.47
2022-08-22T16:04:16.476Z,26.35
2022-08-22T16:06:48.847Z,26.41
2022-08-22T16:09:29.264Z,26.41
2022-08-22T16:11:57.505Z,26.47
2022-08-22T16:14:46.229Z,26.26
2022-08-22T16:17:24.887Z,26.12
2022-08-22T16:20:19.311Z,26.17
2022-08-22T16:22:58.721Z,26.09
2022-08-22T16:25:46.770Z,26.01
2022-08-22T16:28:56.799Z,26.03
2022-08-22T16:31:39.429Z,26.03
2022-08-22T16:34:18.363Z,26.07
2022-08-22T16:37:23.514Z,25.99
2022-08-22T16:39:59.028Z,25.83
2022-08-22T16:42:46.825Z,25.60
2022-08-22T16:45:32.736Z,25.36
2022-08-22T16:48:16.018Z,25.23
2022-08-22T16:50:43.036Z,25.19
2022-08-22T16:53:29.829Z,25.24
2022-08-22T16:56:13.620Z,25.45
2022-08-22T16:58:59.095Z,25.80
2022-08-22T17:01:54.943Z,25.98
2022-08-22T17:04:36.533Z,25.98
2022-08-22T17:07:18.419Z,25.91
2022-08-22T17:09:50.894Z,25.84
2022-08-22T17:12:26.349Z,25.76
2022-08-22T17:15:14.979Z,25.59
2022-08-22T17:18:27.125Z,25.32
2022-08-22T17:21:19.550Z,25.13
2022-08-22T17:23:51.797Z,25.16
2022-08-22T17:26:49.067Z,25.01
2022-08-22T17:29:28.954Z,25.00
2022-08-22T17:32:40.528Z,24.90
2022-08-22T17:35:13.055Z,24.71
2022-08-22T17:37:59.895Z,24.58
2022-08-22T17:41:02.279Z,24.44
2022-08-22T17:43:55.945Z,24.20
2022-08-22T17:46:41.394Z,24.05
2022-08-22T17:49:28.626Z,24.07
2022-08-22T17:52:05.747Z,23.95
2022-08-22T17:54:42.095Z,23.88
2022-08-22T17:57:14.403Z,23.76
2022-08-22T17:59:53.831Z,23.64
2022-08-22T18:02:25.900Z,23.66
2022-08-22T18:05:11.729Z,23.54
2022-08-22T18:07:57.747Z,23.38
2022-08-22T18:10:24.343Z,23.25
2022-08-22T18:13:09.623Z,23.16
2022-08-22T18:15:49.539Z,23.14
2022-08-22T18:18:18.803Z,23.25
2022-08-22T18:20:56.016Z,23.27
2022-08-22T18:23:39.751Z,23.26
2022-08-22T18:26:20.688Z,23.17
2022-08-22T18:29:04.168Z,23.19
2022-08-22T18:31:47.136Z,23.18
2022-08-22T18:34:24.864Z,23.15
2022-08-22T18:37:02.508Z,23.02
2022-08-22T18:39:42.625Z,22.90
2022-08-22T18:42:18.376Z,22.82
2022-08-22T18:44:45.590Z,22.75
2022-08-22T18:47:19.177Z,22.64
2022-08-22T18:49:49.099Z,22.57
2022-08-22T18:52:20.364Z,22.51
2022-08-22T18:55:35.145Z,22.49
2022-08-22T18:58:40.018Z,22.32
2022-08-22T19:01:17.436Z,22.17
2022-08-22T19:04:24.135Z,22.01
2022-08-22T19:07:00.103Z,21.87
2022-08-22T19:09:54.018Z,21.75
2022-08-22T19:12:20.547Z,21.74
2022-08-22T19:15:06.053Z,21.99
2022-08-22T19:18:04.149Z,22.08
2022-08-22T19:20:55.278Z,21.98
2022-08-22T19:23:34.388Z,21.73
2022-08-22T19:26:30.339Z,21.50
2022-08-22T19:29:25.952Z,21.29
2022-08-22T19:31:54.621Z,21.16
2022-08-22T19:34:33.903Z,21.04
2022-08-22T19:37:30.465Z,20.93
2022-08-22T19:40:11.151Z,20.83
2022-08-22T19:42:40.541Z,20.72
2022-08-22T19:45:07.449Z,20.64
2022-08-22T19:47:39.158Z,20.55
2022-08-22T19:50:26.550Z,20.48
2022-08-22T19:53:00.150Z,20.42
2022-08-22T19:55:38.876Z,20.37
2022-08-22T19:58:55.209Z,20.32
2022-08-22T20:01:56.181Z,20.26
2022-08-22T20:04:47.459Z,20.22
2022-08-22T20:07:14.635Z,20.12
2022-08-22T20:10:08.965Z,20.04
2022-08-22T20:13:04.241Z,19.94
2022-08-22T20:15:36.070Z,19.83
2022-08-22T20:18:12.490Z,19.73
2022-08-22T20:21:00.036Z,19.69
2022-08-22T20:23:30.871Z,19.65
2022-08-22T20:25:58.570Z,19.65
2022-08-22T20:28:49.025Z,19.67
2022-08-22T20:31:23.265Z,19.64
2022-08-22T20:33:55.659Z,19.61
2022-08-22T20:36:27.826Z,19.59
2022-08-22T20:39:01.698Z,19.55
2022-08-22T20:41:37.424Z,19.54
2022-08-22T20:44:16.115Z,19.50
2022-08-22T20:46:53.516Z,19.51
2022-08-22T20:49:30.037Z,19.47
2022-08-22T20:52:02.491Z,19.43
2022-08-22T20:54:32.580Z,19.36
2022-08-22T20:57:01.405Z,19.32
2022-08-22T20:59:41.470Z,19.21
2022-08-22T21:02:29.835Z,19.16
2022-08-22T21:05:03.639Z,19.13
2022-08-22T21:07:39.798Z,19.07
2022-08-22T21:10:36.186Z,19.06
2022-08-22T21:13:04.701Z,19.02
2022-08-22T21:15:43.395Z,18.94
2022-08-22T21:18:23.745Z,18.84
2022-08-22T21:20:50.953Z,18.76
2022-08-22T21:23:18.035Z,18.71
2022-08-22T21:26:08.670Z,18.61
2022-08-22T21:28:57.738Z,18.50
2022-08-22T21:31:28.885Z,18.39
2022-08-22T21:33:56.997Z,18.34
2022-08-22T21:36:28.281Z,18.28
2022-08-22T21:39:03.651Z,18.27
2022-08-22T21:41:52.426Z,18.25
2022-08-22T21:44:27.712Z,18.28
2022-08-22T21:46:55.320Z,18.28
2022-08-22T21:49:24.984Z,18.29
2022-08-22T21:51:52.964Z,18.39
2022-08-22T21:54:29.791Z,18.45
2022-08-22T21:57:18.003Z,18.50
2022-08-22T21:59:59.355Z,18.53
2022-08-22T22:02:36.453Z,18.60
2022-08-22T22:05:11.538Z,18.59
2022-08-22T22:07:41.255Z,18.69
2022-08-22T22:10:11.607Z,18.71
2022-08-22T22:12:40.879Z,18.68
2022-08-22T22:15:08.494Z,18.67
2022-08-22T22:17:35.087Z,18.64
2022-08-22T22:20:02.181Z,18.63
2022-08-22T22:22:28.831Z,18.63
2022-08-22T22:24:55.363Z,18.61
2022-08-22T22:27:21.897Z,18.61
2022-08-22T22:29:48.724Z,18.59
2022-08-22T22:32:15.356Z,18.55
2022-08-22T22:34:41.935Z,18.53
2022-08-22T22:37:10.029Z,18.54
2022-08-22T22:39:37.135Z,18.52
2022-08-22T22:42:04.387Z,18.54
2022-08-22T22:44:31.136Z,18.50
2022-08-22T22:46:58.912Z,18.51
2022-08-22T22:49:25.532Z,18.49
2022-08-22T22:51:52.208Z,18.45
2022-08-22T22:54:18.842Z,18.37
2022-08-22T22:56:54.093Z,18.27
2022-08-22T22:59:24.714Z,18.21
2022-08-22T23:02:05.957Z,18.15
2022-08-22T23:04:34.362Z,18.09
2022-08-22T23:07:01.433Z,18.03
2022-08-22T23:09:38.787Z,18.01
2022-08-22T23:12:13.217Z,17.96
2022-08-22T23:14:39.902Z,17.92
2022-08-22T23:17:07.218Z,17.93
2022-08-22T23:19:34.045Z,17.94
2022-08-22T23:22:01.285Z,17.90
2022-08-22T23:24:29.701Z,17.82
2022-08-22T23:26:57.101Z,17.76
2022-08-22T23:29:24.182Z,17.73
2022-08-22T23:31:56.437Z,17.66
2022-08-22T23:34:29.204Z,17.65
2022-08-22T23:37:01.216Z,17.64
2022-08-22T23:39:29.714Z,17.64
2022-08-22T23:41:57.744Z,17.66
2022-08-22T23:44:27.400Z,17.63
2022-08-22T23:46:55.820Z,17.65
2022-08-22T23:49:22.455Z,17.65
2022-08-22T23:51:49.950Z,17.63
2022-08-22T23:54:17.185Z,17.64
2022-08-22T23:56:47.596Z,17.65
2022-08-22T23:59:18.769Z,17.65
